Time;durP1;ratioP1;P1;durP2;ratioP2;P2;SDS_P1;SDS_P2;PMS_P1;PMS_P2;Temp;Humidity;BMP_temperature;BMP_pressure;BME280_temperature;BME280_humidity;BME280_pressure;Samples;Min_cycle;Max_cycle;Signal;HPM_P1;HPM_P2
2022/08/26 00:00:13;;;;;;;15.90;6.00;;;;;;;21.15;68.32;97800.02;106476;1280;24540;-86
2022/08/26 00:03:01;;;;;;;15.10;7.00;;;;;;;20.77;68.46;97798.63;105947;1280;25232;-87
2022/08/26 00:05:29;;;;;;;13.10;6.40;;;;;;;20.55;68.53;97796.08;106349;1280;25720;-85
2022/08/26 00:07:57;;;;;;;12.40;6.70;;;;;;;20.19;68.46;97797.11;106303;1280;22568;-84
2022/08/26 00:10:25;;;;;;;14.10;7.10;;;;;;;19.96;70.06;97794.23;106289;1280;22559;-85
2022/08/26 00:12:53;;;;;;;15.90;5.90;;;;;;;19.96;69.28;97795.08;106248;1280;22707;-87
2022/08/26 00:15:23;;;;;;;17.50;6.90;;;;;;;19.93;70.03;97792.13;106202;1280;22664;-87
2022/08/26 00:17:52;;;;;;;15.70;7.00;;;;;;;19.89;69.37;97793.29;106203;1280;22719;-88
2022/08/26 00:20:24;;;;;;;14.00;7.10;;;;;;;19.81;69.51;97792.76;106076;1280;23024;-88
2022/08/26 00:22:54;;;;;;;13.50;6.10;;;;;;;19.77;69.82;97793.94;106259;1280;22721;-87
2022/08/26 00:25:23;;;;;;;16.00;7.00;;;;;;;19.80;70.42;97795.16;106278;1280;25255;-88
2022/08/26 00:27:51;;;;;;;15.70;6.80;;;;;;;19.85;70.33;97795.11;106066;1280;24295;-88
2022/08/26 00:30:25;;;;;;;19.50;7.20;;;;;;;19.91;70.89;97793.97;106220;1280;22534;-87
2022/08/26 00:32:55;;;;;;;14.10;7.10;;;;;;;19.99;69.94;97794.27;106309;1280;25125;-87
2022/08/26 00:35:24;;;;;;;16.10;6.40;;;;;;;19.98;70.50;97798.16;106319;1280;22568;-84
2022/08/26 00:37:55;;;;;;;13.20;6.50;;;;;;;20.11;70.89;97797.21;107627;1280;23161;-86
2022/08/26 00:40:34;;;;;;;10.60;6.90;;;;;;;20.08;71.49;97794.20;107256;1280;22702;-87
2022/08/26 00:43:04;;;;;;;15.30;8.00;;;;;;;20.10;70.60;97795.86;106384;1280;22602;-88
2022/08/26 00:46:00;;;;;;;22.00;7.40;;;;;;;19.97;70.50;97792.67;106351;1280;22569;-88
2022/08/26 00:48:34;;;;;;;11.70;6.70;;;;;;;19.84;69.86;97788.13;106343;1280;25239;-88
2022/08/26 00:51:10;;;;;;;13.90;7.50;;;;;;;19.75;70.79;97789.53;106026;1280;24104;-88
2022/08/26 00:53:44;;;;;;;13.90;6.30;;;;;;;19.83;71.45;97785.69;106118;1279;22751;-86
2022/08/26 00:56:37;;;;;;;11.00;6.70;;;;;;;19.85;71.11;97786.29;106130;1280;25423;-88
2022/08/26 00:59:07;;;;;;;16.50;7.00;;;;;;;19.82;71.24;97790.90;106078;1280;23410;-87
2022/08/26 01:01:36;;;;;;;15.00;6.30;;;;;;;19.78;71.22;97789.27;106202;1280;26529;-87
2022/08/26 01:04:05;;;;;;;12.70;5.80;;;;;;;19.79;70.90;97794.14;106174;1279;24415;-86
2022/08/26 01:06:33;;;;;;;15.60;6.30;;;;;;;19.76;70.72;97792.59;106146;1280;22870;-86
2022/08/26 01:09:02;;;;;;;12.50;6.60;;;;;;;19.46;70.63;97790.24;106254;1280;22718;-88
2022/08/26 01:11:31;;;;;;;14.00;7.10;;;;;;;19.04;70.90;97790.85;106313;1280;22739;-87
2022/08/26 01:14:03;;;;;;;12.70;7.40;;;;;;;18.68;71.21;97791.66;106227;1280;24670;-86
2022/08/26 01:16:35;;;;;;;16.10;7.70;;;;;;;18.43;71.22;97791.23;106328;1280;23976;-88
2022/08/26 01:19:17;;;;;;;13.80;7.20;;;;;;;18.28;71.53;97791.63;106274;1280;25212;-89
2022/08/26 01:22:12;;;;;;;15.20;7.70;;;;;;;18.16;71.53;97790.02;106238;1279;22762;-87
2022/08/26 01:24:41;;;;;;;16.10;7.00;;;;;;;18.12;71.88;97787.11;106191;1280;25241;-86
2022/08/26 01:27:14;;;;;;;17.70;7.30;;;;;;;18.05;71.90;97788.51;106180;1280;22680;-85
2022/08/26 01:29:48;;;;;;;15.10;7.00;;;;;;;17.98;72.14;97788.30;106246;1280;23963;-85
2022/08/26 01:32:21;;;;;;;14.70;6.90;;;;;;;17.90;72.27;97792.08;106202;1280;23331;-84
2022/08/26 01:34:51;;;;;;;;;;;;;;;17.78;72.41;97791.77;106226;1280;23127;-86
2022/08/26 01:37:26;;;;;;;16.90;8.30;;;;;;;17.68;72.28;97791.24;106343;1280;24218;-85
2022/08/26 01:39:55;;;;;;;19.70;8.60;;;;;;;17.59;72.65;97787.15;106198;1279;25242;-85
2022/08/26 01:42:26;;;;;;;15.70;8.60;;;;;;;17.56;73.03;97787.63;106074;1280;22806;-85
2022/08/26 01:45:02;;;;;;;18.50;9.00;;;;;;;17.60;73.30;97789.15;106311;1280;22479;-85
2022/08/26 01:47:34;;;;;;;13.10;7.00;;;;;;;17.67;73.49;97789.41;107727;1280;23387;-85
2022/08/26 01:50:08;;;;;;;14.30;8.10;;;;;;;17.74;73.94;97788.67;106340;1280;23977;-86
2022/08/26 01:52:40;;;;;;;15.30;8.40;;;;;;;17.82;73.71;97786.25;106289;1280;24185;-86
2022/08/26 01:55:14;;;;;;;17.00;7.90;;;;;;;17.87;74.09;97789.41;106169;1280;24200;-86
2022/08/26 01:58:04;;;;;;;15.50;7.90;;;;;;;17.86;73.81;97789.41;106206;1280;22543;-85
2022/08/26 02:00:34;;;;;;;15.10;7.30;;;;;;;17.93;73.95;97792.91;106322;1280;25580;-87
2022/08/26 02:03:17;;;;;;;16.00;7.00;;;;;;;18.08;75.84;97787.63;105909;1280;26678;-87
2022/08/26 02:06:07;;;;;;;19.00;7.80;;;;;;;18.34;75.49;97786.41;106275;1280;22564;-85
2022/08/26 02:08:43;;;;;;;10.40;6.90;;;;;;;18.44;75.72;97783.30;106001;1280;22551;-85
2022/08/26 02:11:13;;;;;;;10.20;6.80;;;;;;;18.48;74.46;97780.44;106258;1280;23326;-84
2022/08/26 02:13:51;;;;;;;14.40;6.90;;;;;;;18.40;73.66;97776.42;106259;1280;22687;-85
2022/08/26 02:16:25;;;;;;;10.10;6.40;;;;;;;18.33;74.12;97778.65;106149;1280;22867;-85
2022/08/26 02:18:57;;;;;;;12.00;6.90;;;;;;;18.33;74.47;97777.57;106003;1280;25358;-85
2022/08/26 02:21:25;;;;;;;13.50;7.40;;;;;;;18.30;73.97;97775.96;106189;1280;22579;-85
2022/08/26 02:23:54;;;;;;;19.00;7.00;;;;;;;18.25;73.78;97772.01;106172;1280;25352;-86
2022/08/26 02:26:27;;;;;;;15.00;6.60;;;;;;;18.15;73.44;97770.06;106179;1280;22535;-85
2022/08/26 02:29:02;;;;;;;14.50;8.40;;;;;;;17.98;73.25;97766.96;106211;1280;22558;-85
2022/08/26 02:31:31;;;;;;;13.40;6.90;;;;;;;17.80;73.35;97768.30;106186;1280;22586;-86
2022/08/26 02:34:14;;;;;;;16.40;7.30;;;;;;;17.62;73.50;97760.23;106218;1280;22538;-87
2022/08/26 02:36:42;;;;;;;15.80;6.40;;;;;;;17.44;73.62;97758.42;106000;1280;22708;-85
2022/08/26 02:39:11;;;;;;;16.20;6.80;;;;;;;17.35;73.93;97759.27;106186;1280;22554;-86
2022/08/26 02:41:44;;;;;;;15.70;7.20;;;;;;;17.34;74.21;97757.59;106122;1280;24148;-86
2022/08/26 02:44:12;;;;;;;14.30;7.00;;;;;;;17.31;73.96;97757.43;106195;1280;22629;-86
2022/08/26 02:46:41;;;;;;;11.70;7.70;;;;;;;17.27;74.17;97759.02;106190;1280;22558;-86
2022/08/26 02:49:15;;;;;;;15.70;8.20;;;;;;;17.19;73.94;97758.90;106225;1280;22731;-85
2022/08/26 02:51:45;;;;;;;16.30;7.60;;;;;;;17.09;73.94;97757.42;106575;1280;26570;-86
2022/08/26 02:54:14;;;;;;;11.10;6.40;;;;;;;16.99;74.05;97754.59;108590;1280;25317;-86
2022/08/26 02:56:42;;;;;;;13.00;6.60;;;;;;;16.99;74.49;97756.38;106653;1280;22699;-86
2022/08/26 02:59:14;;;;;;;13.90;7.20;;;;;;;16.99;74.44;97758.02;106089;1280;22570;-86
2022/08/26 03:01:43;;;;;;;12.30;7.20;;;;;;;17.00;74.86;97758.87;106121;1280;22566;-86
2022/08/26 03:04:12;;;;;;;9.60;5.20;;;;;;;16.98;74.75;97757.27;106250;1280;25358;-87
2022/08/26 03:06:42;;;;;;;12.20;7.10;;;;;;;17.04;75.55;97759.33;105831;1280;25355;-87
2022/08/26 03:09:19;;;;;;;13.20;6.90;;;;;;;17.04;74.88;97757.08;106232;1280;25421;-85
2022/08/26 03:11:47;;;;;;;14.10;7.00;;;;;;;17.00;74.95;97760.75;106248;1280;23386;-86
2022/08/26 03:14:16;;;;;;;19.70;7.30;;;;;;;16.99;75.46;97760.11;106161;1280;22558;-85
2022/08/26 03:16:44;;;;;;;11.90;7.90;;;;;;;17.01;75.44;97762.02;106228;1280;24367;-86
2022/08/26 03:19:15;;;;;;;11.60;7.20;;;;;;;17.06;76.00;97767.21;106109;1281;22573;-86
2022/08/26 03:21:44;;;;;;;15.00;7.30;;;;;;;17.11;75.53;97766.58;106338;1280;24246;-86
2022/08/26 03:24:16;;;;;;;12.00;6.80;;;;;;;17.13;76.17;97765.26;106220;1280;22745;-86
2022/08/26 03:26:45;;;;;;;15.40;8.00;;;;;;;17.23;76.44;97768.56;106418;1280;23212;-87
2022/08/26 03:32:08;;;;;;;11.10;7.60;;;;;;;17.25;76.15;97761.39;106102;1280;25354;-86
2022/08/26 03:34:37;;;;;;;16.50;7.00;;;;;;;17.34;76.93;97760.31;106033;1280;22571;-86
2022/08/26 03:37:05;;;;;;;15.90;7.10;;;;;;;17.48;76.11;97754.02;106366;1280;22614;-88
2022/08/26 03:39:34;;;;;;;16.40;7.60;;;;;;;17.37;76.19;97758.39;106397;1280;25355;-87
2022/08/26 03:42:02;;;;;;;11.00;6.50;;;;;;;17.29;76.39;97759.64;106359;1280;26856;-88
2022/08/26 03:44:39;;;;;;;12.60;7.40;;;;;;;17.29;76.88;97761.34;106166;1281;22844;-88
2022/08/26 03:47:09;;;;;;;19.80;7.60;;;;;;;17.42;77.99;97757.83;106302;1280;24239;-86
2022/08/26 03:49:37;;;;;;;13.60;7.90;;;;;;;17.51;77.00;97760.88;106548;1280;22643;-87
2022/08/26 03:52:06;;;;;;;14.10;7.90;;;;;;;17.51;77.12;97755.34;107663;1280;23377;-86
2022/08/26 03:54:34;;;;;;;12.60;6.80;;;;;;;17.56;77.09;97756.98;108086;1280;25373;-86
2022/08/26 03:57:02;;;;;;;15.90;7.80;;;;;;;17.57;76.62;97755.73;107919;1279;23068;-86
2022/08/26 03:59:32;;;;;;;13.90;7.20;;;;;;;17.47;77.67;97755.94;108107;1280;26683;-86
2022/08/26 04:02:00;;;;;;;13.80;7.00;;;;;;;17.65;78.87;97751.80;108226;1280;22489;-85
2022/08/26 04:04:29;;;;;;;16.40;6.80;;;;;;;17.71;78.32;97749.02;107721;1280;23977;-84
2022/08/26 04:06:58;;;;;;;13.80;6.80;;;;;;;17.83;77.84;97748.91;108136;1280;22552;-85
2022/08/26 04:09:26;;;;;;;12.10;6.50;;;;;;;17.85;77.03;97748.72;107851;1280;23408;-85
2022/08/26 04:11:57;;;;;;;12.70;6.90;;;;;;;17.83;76.83;97740.95;108252;1280;22544;-85
2022/08/26 04:14:27;;;;;;;14.90;5.90;;;;;;;17.74;76.77;97745.85;107226;1280;22552;-86
2022/08/26 04:16:55;;;;;;;13.70;7.20;;;;;;;17.71;76.94;97745.06;108622;1280;23492;-85
2022/08/26 04:19:26;;;;;;;13.60;5.90;;;;;;;17.66;77.52;97748.59;108190;1280;22550;-84
2022/08/26 04:21:54;;;;;;;9.70;6.20;;;;;;;17.70;77.58;97746.52;108434;1280;22538;-85
2022/08/26 04:24:25;;;;;;;10.60;6.30;;;;;;;17.82;77.93;97753.64;108476;1280;22545;-86
2022/08/26 04:26:55;;;;;;;16.40;6.00;;;;;;;18.06;78.67;97752.21;108367;1280;22588;-85
2022/08/26 04:29:25;;;;;;;9.90;6.30;;;;;;;18.26;78.49;97753.71;108058;1280;22562;-84
2022/08/26 04:31:55;;;;;;;12.00;5.10;;;;;;;18.36;77.21;97749.84;107989;1280;22491;-85
2022/08/26 04:34:26;;;;;;;14.00;6.00;;;;;;;18.31;76.81;97748.09;108400;1280;22549;-85
2022/08/26 04:36:57;;;;;;;12.60;6.20;;;;;;;18.38;77.60;97748.77;108274;1280;23915;-86
2022/08/26 04:39:27;;;;;;;10.40;5.60;;;;;;;18.41;76.46;97749.72;108229;1280;22560;-86
2022/08/26 04:41:55;;;;;;;11.70;6.10;;;;;;;18.44;77.59;97749.09;107567;1280;24255;-85
2022/08/26 04:44:28;;;;;;;11.80;5.60;;;;;;;18.37;76.04;97747.14;106319;1280;22593;-85
2022/08/26 04:46:57;;;;;;;14.20;7.00;;;;;;;18.25;76.50;97746.92;106447;1280;22546;-85
2022/08/26 04:49:26;;;;;;;6.80;4.10;;;;;;;18.24;77.75;97745.64;106430;1280;22588;-86
2022/08/26 04:52:04;;;;;;;10.30;4.30;;;;;;;18.33;77.01;97741.58;106292;1280;22617;-87
2022/08/26 04:54:59;;;;;;;17.30;6.90;;;;;;;18.41;77.89;97738.11;106612;1280;22877;-86
2022/08/26 04:57:27;;;;;;;16.50;6.50;;;;;;;18.51;76.55;97741.14;106525;1281;22585;-86
2022/08/26 04:59:56;;;;;;;16.90;7.40;;;;;;;18.43;76.27;97739.07;106522;1280;23624;-87
2022/08/26 05:02:25;;;;;;;13.60;7.80;;;;;;;18.42;76.73;97739.68;106549;1280;25487;-85
2022/08/26 05:04:53;;;;;;;25.90;10.20;;;;;;;18.40;76.18;97735.59;106469;1280;25293;-85
2022/08/26 05:07:22;;;;;;;21.20;10.10;;;;;;;18.30;75.76;97731.77;106476;1280;22556;-85
2022/08/26 05:09:52;;;;;;;22.40;9.80;;;;;;;18.21;75.71;97732.48;107266;1280;24195;-93
2022/08/26 05:12:22;;;;;;;22.40;9.70;;;;;;;18.21;76.08;97730.77;109401;1270;23705;-91
2022/08/26 05:14:51;;;;;;;19.90;9.30;;;;;;;18.33;75.96;97735.18;109298;1278;22547;-92
2022/08/26 05:17:20;;;;;;;14.40;7.60;;;;;;;18.35;75.77;97730.73;109215;1280;22668;-92
2022/08/26 05:19:49;;;;;;;15.50;8.10;;;;;;;18.38;75.78;97734.14;109236;1280;22550;-90
2022/08/26 05:22:19;;;;;;;12.00;7.70;;;;;;;18.39;75.87;97734.80;108834;1279;22790;-92
2022/08/26 05:24:48;;;;;;;18.00;9.20;;;;;;;18.46;75.81;97735.03;109100;1280;22543;-89
2022/08/26 05:27:16;;;;;;;14.80;8.80;;;;;;;18.56;75.88;97737.13;108459;1280;22608;-92
2022/08/26 05:29:44;;;;;;;18.80;10.00;;;;;;;18.71;75.78;97738.14;108369;1280;22599;-90
2022/08/26 05:35:33;;;;;;;17.70;7.40;;;;;;;18.91;75.86;97738.08;107464;1282;22666;-93
2022/08/26 05:38:03;;;;;;;12.50;6.70;;;;;;;19.06;75.70;97734.10;108490;1282;22680;-88
2022/08/26 05:40:43;;;;;;;19.00;7.50;;;;;;;19.24;75.92;97731.42;108219;1282;22566;-92
2022/08/26 05:43:12;;;;;;;19.80;7.40;;;;;;;19.47;75.61;97733.67;108810;1282;22561;-90
2022/08/26 05:45:43;;;;;;;16.60;7.70;;;;;;;19.68;75.17;97732.22;108120;1282;22699;-91
2022/08/26 05:48:15;;;;;;;11.40;6.30;;;;;;;19.86;75.07;97730.52;108124;1282;22742;-90
2022/08/26 05:50:49;;;;;;;16.90;6.90;;;;;;;20.05;74.76;97726.92;108194;1282;25990;-90
2022/08/26 05:53:20;;;;;;;12.70;6.60;;;;;;;20.16;74.00;97729.16;108116;1282;22680;-91
2022/08/26 05:55:50;;;;;;;12.30;6.30;;;;;;;20.27;73.87;97732.61;108752;1282;22509;-90
2022/08/26 05:58:20;;;;;;;11.00;6.10;;;;;;;20.40;73.78;97730.38;108709;1272;24122;-89
2022/08/26 06:01:00;;;;;;;13.80;6.60;;;;;;;20.51;73.58;97725.02;108942;1281;22931;-89
2022/08/26 06:03:31;;;;;;;15.20;6.60;;;;;;;20.69;73.52;97722.86;108864;1274;22560;-87
2022/08/26 06:06:03;;;;;;;14.20;6.50;;;;;;;20.84;73.12;97723.54;109097;1281;22604;-86
2022/08/26 06:08:35;;;;;;;20.70;7.00;;;;;;;20.98;72.97;97722.47;109293;1269;23652;-90
2022/08/26 06:11:09;;;;;;;12.10;5.90;;;;;;;21.07;72.86;97723.21;108760;1282;24107;-89
2022/08/26 06:13:57;;;;;;;15.10;5.90;;;;;;;21.21;72.92;97724.17;109192;1268;22932;31
2022/08/26 06:16:43;;;;;;;11.30;6.10;;;;;;;21.35;72.77;97724.35;109266;1268;22389;31
2022/08/26 06:19:18;;;;;;;12.40;6.80;;;;;;;21.39;72.19;97722.92;109268;1269;22402;31
2022/08/26 06:21:53;;;;;;;12.70;6.30;;;;;;;21.46;72.28;97725.66;109201;1269;22520;31
2022/08/26 06:27:24;;;;;;;14.20;6.80;;;;;;;21.72;71.65;97721.70;109119;1270;23990;-85
2022/08/26 06:30:08;;;;;;;16.50;6.80;;;;;;;21.74;71.45;97718.90;109454;1267;22517;31
2022/08/26 06:32:44;;;;;;;11.70;6.30;;;;;;;21.79;71.23;97722.16;109337;1270;22411;31
2022/08/26 06:35:20;;;;;;;17.90;6.30;;;;;;;21.88;70.60;97727.57;109410;1267;22515;31
2022/08/26 06:37:56;;;;;;;16.60;7.10;;;;;;;21.90;70.40;97729.25;109240;1269;22544;31
2022/08/26 06:40:31;;;;;;;11.70;6.40;;;;;;;21.88;69.66;97727.73;109283;1268;22774;31
2022/08/26 06:43:07;;;;;;;18.00;8.00;;;;;;;21.97;69.74;97725.79;109330;1269;22929;31
2022/08/26 06:45:46;;;;;;;19.90;7.10;;;;;;;22.02;69.35;97729.20;109213;1270;22843;31
2022/08/26 06:48:23;;;;;;;12.80;6.40;;;;;;;22.00;68.90;97737.34;108999;1272;22920;-84
2022/08/26 06:53:58;;;;;;;13.80;6.40;;;;;;;22.22;68.30;97735.59;109290;1267;22493;31
2022/08/26 06:56:40;;;;;;;17.10;6.50;;;;;;;22.32;68.31;97738.10;109144;1269;22473;31
2022/08/26 06:59:17;;;;;;;19.30;7.80;;;;;;;22.42;68.11;97738.95;109220;1268;22491;31
2022/08/26 07:01:53;;;;;;;12.20;6.50;;;;;;;22.51;67.77;97739.26;109421;1267;23434;31
2022/08/26 07:04:28;;;;;;;14.50;6.40;;;;;;;22.63;68.00;97739.65;109311;1269;22717;31
2022/08/26 07:07:05;;;;;;;16.50;6.80;;;;;;;22.76;67.54;97735.04;109450;1267;23798;31
2022/08/26 07:09:42;;;;;;;15.90;6.70;;;;;;;22.85;67.19;97737.83;109306;1266;22571;31
2022/08/26 07:12:16;;;;;;;14.50;6.60;;;;;;;22.95;67.28;97741.52;109303;1269;22470;31
2022/08/26 07:14:50;;;;;;;16.40;6.90;;;;;;;23.04;67.06;97739.07;109111;1269;22500;31
2022/08/26 07:17:20;;;;;;;17.30;7.20;;;;;;;23.11;66.57;97742.88;109430;1268;22506;-89
2022/08/26 07:19:57;;;;;;;15.90;7.10;;;;;;;23.13;66.33;97735.88;109267;1270;22557;-85
2022/08/26 07:22:26;;;;;;;13.00;6.50;;;;;;;23.23;65.96;97744.41;108541;1271;23821;-87
2022/08/26 07:24:54;;;;;;;16.20;7.60;;;;;;;23.29;65.53;97744.83;108973;1279;22569;-89
2022/08/26 07:27:29;;;;;;;18.40;7.10;;;;;;;23.28;64.85;97744.91;109076;1270;22464;31
2022/08/26 07:29:57;;;;;;;14.80;6.80;;;;;;;23.22;64.80;97744.41;107782;1274;22579;-92
2022/08/26 07:32:25;;;;;;;10.70;6.40;;;;;;;23.19;65.08;97742.73;106664;1281;23429;-90
2022/08/26 07:34:53;;;;;;;19.80;7.10;;;;;;;23.28;65.27;97744.43;106886;1280;24251;-91
2022/08/26 07:37:22;;;;;;;21.90;6.90;;;;;;;23.38;64.65;97745.89;106902;1281;22652;-93
2022/08/26 07:39:50;;;;;;;16.70;7.20;;;;;;;23.45;64.64;97745.61;106971;1281;24217;-90
2022/08/26 07:42:19;;;;;;;12.40;6.50;;;;;;;23.56;64.06;97745.79;106899;1280;25935;-90
2022/08/26 07:44:48;;;;;;;14.00;7.20;;;;;;;23.60;63.89;97743.92;106320;1281;22801;-91
2022/08/26 07:47:16;;;;;;;17.70;7.20;;;;;;;23.60;63.51;97741.80;106677;1281;22825;-90
2022/08/26 07:49:56;;;;;;;14.50;7.00;;;;;;;23.62;63.31;97740.69;106727;1281;25244;-91
2022/08/26 07:52:36;;;;;;;16.90;6.90;;;;;;;23.66;62.96;97739.92;109020;1271;23587;-83
2022/08/26 07:55:13;;;;;;;13.20;6.60;;;;;;;23.72;62.89;97738.71;109397;1267;22644;31
2022/08/26 07:57:47;;;;;;;15.40;6.30;;;;;;;23.81;62.97;97742.59;109458;1267;23138;31
2022/08/26 08:00:16;;;;;;;;;;;;;;;23.93;62.89;97741.17;107468;1281;22638;-91
2022/08/26 08:02:44;;;;;;;18.30;6.90;;;;;;;24.03;62.81;97738.77;107157;1281;22737;-87
2022/08/26 08:05:16;;;;;;;19.50;7.30;;;;;;;24.11;62.19;97738.92;106959;1281;24339;-91
2022/08/26 08:07:45;;;;;;;16.00;6.90;;;;;;;24.19;61.88;97743.89;107562;1281;24209;-92
2022/08/26 08:10:17;;;;;;;12.80;6.00;;;;;;;24.25;61.87;97747.50;108151;1281;22717;-91
2022/08/26 08:12:49;;;;;;;14.90;6.30;;;;;;;24.36;61.90;97741.52;108899;1282;22583;-88
2022/08/26 08:15:19;;;;;;;14.40;6.90;;;;;;;24.51;61.73;97743.12;108560;1282;22694;-93
2022/08/26 08:17:48;;;;;;;13.00;6.90;;;;;;;24.60;61.27;97736.66;106602;1282;25580;-90
2022/08/26 08:20:20;;;;;;;14.00;6.20;;;;;;;24.66;60.57;97737.27;106114;1282;22557;-89
2022/08/26 08:22:51;;;;;;;19.30;7.20;;;;;;;24.73;60.70;97735.21;106937;1282;24250;-90
2022/08/26 08:25:21;;;;;;;15.80;6.90;;;;;;;24.83;60.41;97733.86;106827;1280;22756;-93
2022/08/26 08:27:54;;;;;;;15.10;7.20;;;;;;;24.90;60.18;97732.11;107873;1282;22628;-90
2022/08/26 08:33:02;;;;;;;23.00;7.40;;;;;;;25.06;59.97;97727.49;108701;1269;22554;-90
2022/08/26 08:35:39;;;;;;;16.90;6.30;;;;;;;25.16;59.05;97729.92;107571;1267;22665;-85
2022/08/26 08:38:16;;;;;;;17.30;7.50;;;;;;;25.24;58.77;97729.36;109427;1267;23257;31
2022/08/26 08:40:44;;;;;;;17.50;6.20;;;;;;;25.33;58.71;97722.67;109119;1281;22586;-88
2022/08/26 08:43:32;;;;;;;17.50;6.80;;;;;;;25.43;58.22;97724.70;108712;1268;22575;-93
2022/08/26 08:46:16;;;;;;;24.50;6.60;;;;;;;25.56;57.70;97727.62;108694;1268;22590;-93
2022/08/26 08:48:49;;;;;;;20.60;6.70;;;;;;;25.64;56.91;97724.11;108033;1281;24117;-91
2022/08/26 08:51:26;;;;;;;19.80;6.50;;;;;;;25.73;56.83;97722.47;107630;1281;22562;-94
2022/08/26 08:53:55;;;;;;;16.50;5.70;;;;;;;25.83;56.72;97720.70;108050;1281;22485;-92
2022/08/26 08:56:40;;;;;;;21.20;7.00;;;;;;;25.94;56.57;97720.80;107826;1280;22762;-91
2022/08/26 08:59:19;;;;;;;18.00;6.50;;;;;;;26.04;56.33;97718.75;107713;1281;22541;-93
2022/08/26 09:01:51;;;;;;;13.80;5.70;;;;;;;26.20;56.47;97718.23;107807;1281;22555;-92
2022/08/26 09:05:01;;;;;;;20.90;6.10;;;;;;;26.36;56.12;97718.18;107832;1279;26971;-92
2022/08/26 09:07:43;;;;;;;14.10;5.80;;;;;;;26.49;55.56;97717.13;108617;1281;22675;-89
2022/08/26 09:10:32;;;;;;;14.10;6.40;;;;;;;26.52;53.82;97713.87;107430;1281;22598;-90
2022/08/26 09:13:20;;;;;;;17.90;6.30;;;;;;;26.58;53.16;97712.86;108220;1281;22544;-91
2022/08/26 09:15:53;;;;;;;16.90;5.50;;;;;;;26.67;53.50;97713.97;108712;1281;25956;-88
2022/08/26 09:18:34;;;;;;;15.70;5.70;;;;;;;26.80;53.23;97712.58;108434;1270;22552;-92
2022/08/26 09:21:08;;;;;;;10.90;5.60;;;;;;;26.96;53.39;97706.39;106397;1280;25288;-84
2022/08/26 09:23:39;;;;;;;17.40;5.50;;;;;;;27.10;52.83;97702.42;105973;1281;25284;-84
2022/08/26 09:26:27;;;;;;;15.30;5.90;;;;;;;27.18;52.08;97699.35;106065;1281;22693;-83
2022/08/26 09:29:02;;;;;;;15.60;5.40;;;;;;;27.29;51.35;97698.90;106090;1281;24418;-84
2022/08/26 09:31:34;;;;;;;17.10;5.30;;;;;;;27.39;51.62;97697.11;106113;1279;22575;-83
2022/08/26 09:34:21;;;;;;;20.10;5.10;;;;;;;27.46;49.08;97691.88;105906;1284;24361;-83
2022/08/26 09:36:55;;;;;;;19.70;6.70;;;;;;;27.48;49.77;97690.73;105940;1281;22542;-86
2022/08/26 09:39:30;;;;;;;19.50;6.00;;;;;;;27.54;48.22;97689.88;105958;1281;22606;-84
2022/08/26 09:42:09;;;;;;;15.00;5.30;;;;;;;27.57;48.03;97688.79;106381;1281;22574;-83
2022/08/26 09:45:05;;;;;;;17.10;6.10;;;;;;;27.60;46.35;97689.30;106237;1281;22538;-83
2022/08/26 09:47:37;;;;;;;20.70;5.10;;;;;;;27.61;46.61;97686.20;106195;1281;22551;-84
2022/08/26 09:50:33;;;;;;;17.10;5.00;;;;;;;27.68;45.50;97684.46;106042;1281;22591;-84
2022/08/26 09:53:07;;;;;;;12.80;5.30;;;;;;;27.75;45.03;97688.15;103887;1281;2886459;-83
2022/08/26 09:55:42;;;;;;;16.40;5.60;;;;;;;27.79;44.65;97684.39;106150;1280;22549;-84
2022/08/26 09:58:30;;;;;;;14.60;5.00;;;;;;;27.88;44.28;97682.05;105846;1284;22542;-83
2022/08/26 10:01:03;;;;;;;14.50;5.00;;;;;;;27.96;44.58;97685.40;105825;1284;23330;-83
2022/08/26 10:03:34;;;;;;;16.00;4.80;;;;;;;28.07;44.48;97683.41;105927;1284;24256;-83
2022/08/26 10:06:06;;;;;;;15.30;4.70;;;;;;;28.19;44.25;97679.33;106093;1280;24274;-88
2022/08/26 10:08:41;;;;;;;16.30;4.40;;;;;;;28.25;43.43;97678.04;106185;1281;23970;-85
2022/08/26 10:11:34;;;;;;;20.00;4.40;;;;;;;28.33;43.69;97676.58;106145;1281;24253;-84
2022/08/26 10:14:09;;;;;;;15.30;5.10;;;;;;;28.43;43.28;97678.30;106123;1281;25261;-83
2022/08/26 10:16:56;;;;;;;14.90;4.40;;;;;;;28.54;43.20;97676.52;105779;1281;26529;-85
2022/08/26 10:19:37;;;;;;;17.20;4.50;;;;;;;28.59;42.96;97673.67;106185;1281;22547;-84
2022/08/26 10:22:51;;;;;;;13.10;4.90;;;;;;;28.71;43.57;97665.92;105836;1281;23939;-84
2022/08/26 10:25:26;;;;;;;18.00;4.80;;;;;;;28.92;43.34;97665.49;106039;1281;24287;-83
2022/08/26 10:28:49;;;;;;;13.30;5.20;;;;;;;29.05;42.10;97659.23;106146;1281;23221;-85
2022/08/26 10:31:37;;;;;;;13.60;4.70;;;;;;;29.13;40.93;97658.27;105251;1287;22684;-86
2022/08/26 10:34:09;;;;;;;20.40;4.80;;;;;;;29.16;40.85;97660.43;105537;1288;22884;-83
2022/08/26 10:37:00;;;;;;;15.70;4.40;;;;;;;29.22;40.32;97653.98;105315;1287;22667;-86
2022/08/26 10:40:06;;;;;;;17.40;5.90;;;;;;;29.41;40.61;97655.15;105221;1287;22739;-84
2022/08/26 10:42:53;;;;;;;19.70;6.30;;;;;;;29.55;40.16;97656.20;105282;1288;22593;-85
2022/08/26 10:45:28;;;;;;;17.80;5.20;;;;;;;29.59;39.14;97654.91;105526;1287;23574;-85
2022/08/26 10:48:05;;;;;;;11.00;4.20;;;;;;;29.57;38.60;97651.46;106592;1287;22664;-83
2022/08/26 10:50:40;;;;;;;19.80;4.50;;;;;;;29.57;38.77;97654.23;105723;1284;25026;-84
2022/08/26 10:53:38;;;;;;;21.10;4.20;;;;;;;29.63;38.98;97647.94;105531;1284;22714;-86
2022/08/26 10:56:43;;;;;;;13.20;4.20;;;;;;;29.67;37.87;97647.69;105571;1284;23037;-85
2022/08/26 11:03:37;;;;;;;13.00;4.90;;;;;;;29.84;38.28;97649.19;105006;1290;22541;-85
2022/08/26 11:06:18;;;;;;;12.50;4.50;;;;;;;29.96;38.69;97646.59;104904;1291;22569;-83
2022/08/26 11:08:46;;;;;;;16.00;4.40;;;;;;;30.06;38.33;97643.88;105106;1287;22561;-88
2022/08/26 11:11:39;;;;;;;15.30;4.50;;;;;;;30.19;38.14;97643.81;105532;1287;22547;-85
2022/08/26 11:14:10;;;;;;;12.50;4.50;;;;;;;30.24;36.14;97643.36;105526;1287;22620;-85
2022/08/26 11:16:43;;;;;;;21.00;3.80;;;;;;;30.20;36.43;97644.88;105265;1287;25534;-84
2022/08/26 11:19:34;;;;;;;16.80;4.50;;;;;;;30.24;36.61;97647.02;105316;1287;25390;-85
2022/08/26 11:22:32;;;;;;;13.60;4.60;;;;;;;30.40;37.40;97644.79;105459;1287;23412;-84
2022/08/26 11:25:07;;;;;;;14.70;4.10;;;;;;;30.60;37.30;97642.98;105317;1287;24384;-83
2022/08/26 11:27:38;;;;;;;15.50;4.80;;;;;;;30.79;36.48;97638.27;105317;1287;24726;-84
2022/08/26 11:30:09;;;;;;;14.80;4.90;;;;;;;30.86;35.81;97636.41;105354;1287;22558;-83
2022/08/26 11:32:39;;;;;;;16.40;4.50;;;;;;;30.89;36.28;97633.46;105519;1287;25261;-83
2022/08/26 11:35:18;;;;;;;14.50;4.60;;;;;;;30.96;36.15;97632.95;106095;1281;24329;-84
2022/08/26 11:38:01;;;;;;;21.20;4.40;;;;;;;31.08;35.98;97629.73;106079;1281;22634;-85
2022/08/26 11:40:37;;;;;;;14.30;4.00;;;;;;;31.15;36.01;97628.58;106172;1281;22558;-84
2022/08/26 11:43:11;;;;;;;16.10;4.10;;;;;;;31.17;35.51;97622.36;105937;1281;22543;-85
2022/08/26 11:45:46;;;;;;;14.10;4.50;;;;;;;31.19;35.28;97620.84;105914;1281;22630;-85
2022/08/26 11:48:29;;;;;;;13.30;3.80;;;;;;;31.21;35.05;97613.42;106173;1281;22628;-86
2022/08/26 11:51:11;;;;;;;22.10;5.10;;;;;;;31.26;35.07;97610.66;106447;1281;26542;-87
2022/08/26 11:53:45;;;;;;;16.30;4.40;;;;;;;31.31;35.01;97614.35;107823;1281;22619;-83
2022/08/26 11:56:26;;;;;;;14.80;4.80;;;;;;;31.35;34.78;97613.29;106308;1281;25501;-85
2022/08/26 11:59:02;;;;;;;12.30;5.20;;;;;;;31.46;35.25;97610.55;105670;1281;22592;-85
2022/08/26 12:01:34;;;;;;;14.70;4.40;;;;;;;31.57;35.47;97612.52;105879;1281;25605;-85
2022/08/26 12:04:09;;;;;;;16.20;4.50;;;;;;;31.72;35.25;97611.65;106102;1281;23951;-86
2022/08/26 12:06:44;;;;;;;19.70;4.50;;;;;;;31.74;34.82;97609.91;106198;1281;25589;-90
2022/08/26 12:09:29;;;;;;;13.90;4.50;;;;;;;31.78;34.97;97607.65;105798;1283;24266;-83
2022/08/26 12:12:20;;;;;;;19.90;4.50;;;;;;;31.82;34.75;97606.70;106415;1281;23402;-89